Time;durP1;ratioP1;P1;durP2;ratioP2;P2;SDS_P1;SDS_P2;PMS_P1;PMS_P2;Temp;Humidity;BMP_temperature;BMP_pressure;BME280_temperature;BME280_humidity;BME280_pressure;Samples;Min_cycle;Max_cycle;Signal;HPM_P1;HPM_P2
2021/10/09 00:01:56;;;;;;;17.10;6.30;;;;;;;4.80;52.90;101418.11;116572;1199;136274;-60
2021/10/09 00:04:24;;;;;;;16.30;6.70;;;;;;;4.77;53.09;101416.09;116774;1199;22309;-60
2021/10/09 00:06:53;;;;;;;17.60;6.70;;;;;;;4.75;53.10;101415.85;116594;1199;137285;-60
2021/10/09 00:09:21;;;;;;;16.80;6.00;;;;;;;4.73;53.62;101413.18;116785;1199;23150;-60
2021/10/09 00:11:49;;;;;;;15.50;6.10;;;;;;;4.71;53.41;101414.43;116742;1193;22217;-60
2021/10/09 00:14:17;;;;;;;16.80;6.60;;;;;;;4.70;53.43;101416.16;116655;1199;136694;-60
2021/10/09 00:16:46;;;;;;;14.00;6.90;;;;;;;4.69;53.72;101417.58;116813;1199;23213;-60
2021/10/09 00:19:14;;;;;;;17.20;7.20;;;;;;;4.66;53.57;101414.81;116635;1199;136884;-60
2021/10/09 00:21:44;;;;;;;18.50;6.00;;;;;;;4.63;53.62;101417.52;116703;1199;22311;-60
2021/10/09 00:24:17;;;;;;;17.70;6.00;;;;;;;4.60;53.95;101419.23;116693;1200;22309;-60
2021/10/09 00:26:46;;;;;;;17.10;7.40;;;;;;;4.58;53.48;101412.24;116626;1199;137498;-60
2021/10/09 00:29:14;;;;;;;16.30;7.40;;;;;;;4.56;53.76;101410.49;116749;1199;23319;-60
2021/10/09 00:31:47;;;;;;;22.30;7.60;;;;;;;4.54;54.03;101408.60;116579;1199;136715;-60
2021/10/09 00:34:15;;;;;;;17.80;7.70;;;;;;;4.52;54.13;101404.55;116683;1199;22448;-60
2021/10/09 00:36:43;;;;;;;21.30;7.70;;;;;;;4.46;53.96;101403.27;116492;1201;138064;-60
2021/10/09 00:39:11;;;;;;;27.50;9.60;;;;;;;4.41;54.29;101402.73;116687;1199;22322;-60
2021/10/09 00:41:39;;;;;;;21.00;7.90;;;;;;;4.36;54.43;101400.57;116730;1199;22360;-60
2021/10/09 00:44:10;;;;;;;20.00;7.80;;;;;;;4.33;54.38;101402.98;116608;1199;137111;-60
2021/10/09 00:46:38;;;;;;;27.00;7.60;;;;;;;4.29;54.44;101397.29;116669;1199;22394;-60
2021/10/09 00:49:07;;;;;;;21.20;6.90;;;;;;;4.26;54.81;101394.52;116686;1199;136748;-60
2021/10/09 00:51:35;;;;;;;16.60;6.80;;;;;;;4.25;54.64;101394.63;116807;1199;22760;-60
2021/10/09 00:54:03;;;;;;;20.90;6.90;;;;;;;4.24;54.96;101395.80;116718;1199;22364;-60
2021/10/09 00:56:33;;;;;;;23.10;7.50;;;;;;;4.21;54.99;101393.04;116719;1198;137929;-60
2021/10/09 00:59:01;;;;;;;22.80;7.70;;;;;;;4.19;55.27;101394.70;116688;1199;22325;-60
2021/10/09 01:01:30;;;;;;;24.50;8.30;;;;;;;4.17;55.27;101393.73;116444;1201;137819;-60
2021/10/09 01:03:59;;;;;;;24.60;8.30;;;;;;;4.14;55.42;101388.28;116477;1200;22376;-60
2021/10/09 01:06:27;;;;;;;28.80;8.50;;;;;;;4.11;55.74;101390.06;116569;1199;136816;-60
2021/10/09 01:08:55;;;;;;;29.90;8.90;;;;;;;4.09;55.80;101390.36;116798;1199;22288;-60
2021/10/09 01:11:23;;;;;;;36.60;9.30;;;;;;;4.06;55.50;101389.02;116630;1200;22381;-60
2021/10/09 01:13:52;;;;;;;26.80;8.10;;;;;;;4.05;55.80;101386.48;116534;1199;136732;-60
2021/10/09 01:16:25;;;;;;;29.50;8.50;;;;;;;4.05;55.97;101388.03;116624;1199;22239;-60
2021/10/09 01:18:55;;;;;;;28.10;8.90;;;;;;;4.07;56.05;101386.45;116583;1199;136915;-60
2021/10/09 01:21:24;;;;;;;31.80;11.60;;;;;;;4.07;56.10;101384.73;116710;1200;22234;-60
2021/10/09 01:23:55;;;;;;;22.20;10.10;;;;;;;4.07;55.98;101385.64;116712;1199;22329;-60
2021/10/09 01:26:24;;;;;;;28.60;10.00;;;;;;;4.06;56.20;101390.80;116576;1199;137384;-60
2021/10/09 01:28:52;;;;;;;30.10;8.40;;;;;;;4.06;56.24;101390.05;116616;1200;22354;-60
2021/10/09 01:31:20;;;;;;;36.60;10.00;;;;;;;4.07;56.37;101391.68;116601;1198;137384;-60
2021/10/09 01:33:49;;;;;;;19.70;8.30;;;;;;;4.07;56.50;101386.62;116728;1197;22328;-60
2021/10/09 01:36:21;;;;;;;22.50;8.30;;;;;;;4.05;56.57;101386.70;116711;1199;22296;-60
2021/10/09 01:38:50;;;;;;;30.80;9.30;;;;;;;4.02;56.57;101380.84;116577;1199;140678;-60
2021/10/09 01:41:22;;;;;;;21.90;8.40;;;;;;;4.02;56.62;101380.91;116776;1199;22388;-60
2021/10/09 01:43:51;;;;;;;18.70;7.90;;;;;;;4.01;57.15;101380.84;116473;1201;136922;-60
2021/10/09 01:46:19;;;;;;;20.50;10.30;;;;;;;3.99;57.05;101382.98;116645;1199;22273;-60
2021/10/09 01:48:47;;;;;;;24.90;9.80;;;;;;;3.98;56.92;101379.39;116705;1199;138031;-60
2021/10/09 01:51:15;;;;;;;29.50;10.60;;;;;;;3.97;57.20;101378.20;116717;1199;22418;-60
2021/10/09 01:53:45;;;;;;;22.40;9.80;;;;;;;3.97;57.34;101375.00;116567;1199;22358;-60
2021/10/09 01:56:14;;;;;;;33.60;10.60;;;;;;;3.95;57.11;101372.88;116665;1199;138694;-60
2021/10/09 01:58:42;;;;;;;28.50;10.30;;;;;;;3.93;57.20;101376.25;116619;1199;22231;-60
2021/10/09 02:01:17;;;;;;;32.10;9.60;;;;;;;3.91;57.46;101378.60;116667;1199;136913;-60
2021/10/09 02:03:49;;;;;;;26.00;9.80;;;;;;;3.89;57.54;101377.20;116702;1197;22234;-60
2021/10/09 02:06:22;;;;;;;32.00;9.50;;;;;;;3.87;57.51;101380.14;114509;1193;22469;-60
2021/10/09 02:08:53;;;;;;;19.20;8.10;;;;;;;3.85;57.67;101375.02;112524;1199;137646;-60
2021/10/09 02:11:24;;;;;;;20.60;8.80;;;;;;;3.82;57.68;101378.41;116769;1193;22998;-60
2021/10/09 02:27:23;;;;;;;23.00;9.80;;;;;;;3.64;58.31;101380.75;116752;1199;22372;-60
2021/10/09 02:29:51;;;;;;;26.30;8.60;;;;;;;3.63;58.24;101374.45;116651;1199;22357;-61
2021/10/09 02:32:20;;;;;;;35.80;10.60;;;;;;;3.61;58.42;101375.67;116640;1199;136700;-60
2021/10/09 02:34:48;;;;;;;30.30;9.70;;;;;;;3.60;58.28;101378.55;116716;1200;22393;-60
2021/10/09 02:37:17;;;;;;;30.10;9.20;;;;;;;3.55;58.53;101379.55;116532;1200;137227;-60
2021/10/09 02:39:45;;;;;;;34.10;10.90;;;;;;;3.50;58.79;101375.59;116664;1200;22135;-60
2021/10/09 02:42:14;;;;;;;34.70;14.00;;;;;;;3.46;59.00;101375.23;116643;1200;22338;-60
2021/10/09 02:44:42;;;;;;;35.50;14.50;;;;;;;3.41;59.03;101377.27;116617;1199;137300;-60
2021/10/09 02:47:12;;;;;;;36.80;17.50;;;;;;;3.40;59.03;101381.42;116650;1200;23595;-60
2021/10/09 02:49:40;;;;;;;37.00;15.20;;;;;;;3.37;59.00;101381.05;116490;1200;137067;-60
2021/10/09 02:52:08;;;;;;;39.40;12.60;;;;;;;3.35;58.96;101383.68;116603;1200;22116;-60
2021/10/09 02:54:37;;;;;;;33.10;11.30;;;;;;;3.33;59.15;101382.17;116507;1201;137286;-60
2021/10/09 02:57:06;;;;;;;25.60;10.70;;;;;;;3.32;59.09;101383.02;116727;1200;22276;-60
2021/10/09 02:59:34;;;;;;;25.50;10.10;;;;;;;3.32;59.04;101385.63;116651;1195;22341;-60
2021/10/09 03:02:03;;;;;;;23.00;8.50;;;;;;;3.33;58.89;101384.88;116576;1200;137674;-60
2021/10/09 03:04:31;;;;;;;25.70;8.30;;;;;;;3.34;59.01;101383.30;116665;1200;23071;-60
2021/10/09 03:06:59;;;;;;;24.60;9.90;;;;;;;3.36;58.82;101386.34;116515;1194;137292;-60
2021/10/09 03:09:28;;;;;;;25.80;8.20;;;;;;;3.37;58.89;101385.54;116629;1200;23004;-60
2021/10/09 03:12:04;;;;;;;35.00;9.60;;;;;;;3.37;58.80;101384.23;116621;1199;22333;-60
2021/10/09 03:14:33;;;;;;;21.40;9.20;;;;;;;3.37;58.98;101383.75;116463;1201;137363;-60
2021/10/09 03:17:26;;;;;;;25.20;9.70;;;;;;;3.34;59.09;101381.63;116698;1200;22155;-60
2021/10/09 03:19:54;;;;;;;24.70;8.90;;;;;;;3.35;58.90;101383.58;116545;1200;136795;-60
2021/10/09 03:22:22;;;;;;;29.50;9.70;;;;;;;3.33;58.97;101385.40;116673;1200;23019;-60
2021/10/09 03:24:50;;;;;;;25.10;9.70;;;;;;;3.33;58.96;101384.71;116595;1199;137016;-60
2021/10/09 03:27:18;;;;;;;25.10;8.60;;;;;;;3.31;58.91;101385.98;116672;1200;22280;-60
2021/10/09 03:29:47;;;;;;;21.30;9.50;;;;;;;3.30;59.03;101384.13;116586;1200;22486;-60
2021/10/09 03:32:15;;;;;;;27.20;9.40;;;;;;;3.28;59.15;101387.36;116534;1200;138004;-60
2021/10/09 03:34:44;;;;;;;27.20;9.20;;;;;;;3.26;59.19;101387.08;116678;1200;22219;-60
2021/10/09 03:37:12;;;;;;;24.30;9.80;;;;;;;3.24;59.27;101383.14;116532;1200;138110;-60
2021/10/09 03:39:44;;;;;;;24.30;9.10;;;;;;;3.21;59.52;101379.55;116637;1193;22238;-60
2021/10/09 03:42:16;;;;;;;27.20;10.30;;;;;;;3.19;59.52;101384.02;116623;1200;22345;-59
2021/10/09 03:53:02;;;;;;;28.30;11.40;;;;;;;3.04;59.65;101389.47;116511;1202;22254;-60
2021/10/09 03:55:30;;;;;;;31.90;11.70;;;;;;;3.02;59.76;101392.67;116241;1202;137456;-60
2021/10/09 03:57:59;;;;;;;37.60;13.10;;;;;;;3.00;59.77;101394.65;116590;1202;22571;-60
2021/10/09 04:00:29;;;;;;;38.70;13.70;;;;;;;2.99;59.88;101393.94;116369;1202;22347;-60
2021/10/09 04:02:59;;;;;;;34.70;11.90;;;;;;;2.95;59.87;101394.69;116273;1202;137150;-60
2021/10/09 04:05:28;;;;;;;33.30;11.80;;;;;;;2.88;59.90;101400.48;116254;1203;22370;-60
2021/10/09 04:07:56;;;;;;;39.60;12.10;;;;;;;2.83;60.01;101395.25;116063;1204;137167;-61
2021/10/09 04:10:24;;;;;;;29.70;10.20;;;;;;;2.79;60.20;101394.08;116181;1197;22289;-60
2021/10/09 04:12:54;;;;;;;39.90;10.60;;;;;;;2.76;60.25;101395.27;115941;1204;139443;-60
2021/10/09 04:15:22;;;;;;;30.50;11.80;;;;;;;2.74;60.40;101395.56;116098;1204;22264;-60
2021/10/09 04:17:50;;;;;;;33.00;10.50;;;;;;;2.71;60.48;101394.39;116027;1204;22399;-60
2021/10/09 04:20:19;;;;;;;34.30;10.30;;;;;;;2.69;60.63;101401.08;116077;1203;138065;-60
2021/10/09 04:22:48;;;;;;;35.00;10.10;;;;;;;2.67;60.75;101407.66;116110;1204;23680;-60
2021/10/09 04:25:17;;;;;;;28.40;10.80;;;;;;;2.67;60.88;101410.77;116248;1201;137535;-60
2021/10/09 04:27:45;;;;;;;33.70;10.30;;;;;;;2.66;60.74;101410.84;116411;1201;22251;-60
2021/10/09 04:30:14;;;;;;;46.00;11.40;;;;;;;2.67;61.09;101411.89;116448;1201;22404;-60
2021/10/09 04:32:42;;;;;;;33.10;11.50;;;;;;;2.66;61.04;101418.98;116344;1201;138581;-60
2021/10/09 04:35:10;;;;;;;33.60;12.00;;;;;;;2.65;61.16;101423.89;116544;1201;23304;-60
2021/10/09 04:37:39;;;;;;;23.60;11.10;;;;;;;2.64;61.27;101424.35;116311;1201;137608;-60
2021/10/09 04:40:07;;;;;;;36.20;13.40;;;;;;;2.61;61.43;101425.89;116365;1201;22275;-60
2021/10/09 04:42:38;;;;;;;49.30;14.60;;;;;;;2.62;61.45;101425.78;116385;1200;137722;-60
2021/10/09 04:45:06;;;;;;;40.10;15.50;;;;;;;2.61;61.43;101424.50;116778;1193;23545;-60
2021/10/09 04:47:37;;;;;;;34.50;14.20;;;;;;;2.62;61.67;101424.63;116684;1199;22261;-60
2021/10/09 04:50:06;;;;;;;40.50;13.60;;;;;;;2.63;61.67;101424.34;116544;1200;138500;-60
2021/10/09 04:52:35;;;;;;;30.20;11.10;;;;;;;2.65;61.45;101421.77;116618;1199;22333;-60
2021/10/09 04:55:06;;;;;;;33.60;12.10;;;;;;;2.68;61.44;101423.23;116564;1199;137807;-60
2021/10/09 04:57:35;;;;;;;33.80;10.20;;;;;;;2.71;61.33;101421.11;116573;1194;22351;-60
2021/10/09 05:00:04;;;;;;;28.60;10.80;;;;;;;2.75;61.36;101422.27;116512;1201;22413;-60
2021/10/09 05:02:34;;;;;;;33.40;10.40;;;;;;;2.79;61.24;101425.27;116590;1199;137616;-60
2021/10/09 05:05:03;;;;;;;29.10;10.50;;;;;;;2.82;61.19;101424.72;116539;1201;22354;-60
2021/10/09 05:07:36;;;;;;;30.10;9.90;;;;;;;2.87;61.15;101426.39;116576;1199;137578;-60
2021/10/09 05:10:07;;;;;;;27.00;9.30;;;;;;;2.91;61.07;101426.23;116509;1200;23001;-60
2021/10/09 05:12:45;;;;;;;27.40;9.60;;;;;;;2.95;61.13;101427.53;116530;1199;137454;-60
2021/10/09 05:15:13;;;;;;;29.90;9.20;;;;;;;2.98;61.10;101423.99;116604;1199;22326;-59
2021/10/09 05:17:42;;;;;;;26.80;9.50;;;;;;;3.03;61.06;101424.50;116632;1199;22422;-60
2021/10/09 05:20:10;;;;;;;28.30;9.80;;;;;;;3.07;60.83;101423.20;116596;1199;137473;-60
2021/10/09 05:22:40;;;;;;;31.10;9.70;;;;;;;3.10;60.76;101420.39;116680;1199;22311;-59
2021/10/09 05:25:08;;;;;;;34.80;9.90;;;;;;;3.14;60.64;101422.07;116562;1199;139331;-60
2021/10/09 05:27:38;;;;;;;42.00;12.30;;;;;;;3.18;60.59;101420.04;116594;1200;22263;-59
2021/10/09 05:30:09;;;;;;;29.40;10.10;;;;;;;3.26;60.42;101421.39;116686;1199;27534;-59
2021/10/09 05:32:47;;;;;;;30.70;11.50;;;;;;;3.34;60.03;101420.70;116578;1199;137779;-60
2021/10/09 05:35:16;;;;;;;24.60;10.30;;;;;;;3.43;59.82;101425.10;116617;1187;22794;-60
2021/10/09 05:37:46;;;;;;;26.50;10.00;;;;;;;3.51;59.63;101421.13;116431;1199;137452;-60
2021/10/09 05:40:14;;;;;;;23.10;8.90;;;;;;;3.61;59.28;101421.36;116527;1199;23222;-59
2021/10/09 05:42:42;;;;;;;27.90;9.20;;;;;;;3.72;59.30;101416.02;116476;1200;137599;-59
2021/10/09 05:45:10;;;;;;;29.40;11.20;;;;;;;3.81;59.15;101415.02;116700;1200;23120;-59
2021/10/09 05:47:39;;;;;;;36.80;10.50;;;;;;;3.90;58.89;101417.00;112418;1194;22444;-60
2021/10/09 05:50:09;;;;;;;29.60;10.10;;;;;;;3.98;58.47;101415.46;112381;1199;137316;-60
2021/10/09 05:52:54;;;;;;;29.70;10.70;;;;;;;4.08;58.24;101417.37;116728;1199;22994;-60
2021/10/09 05:55:41;;;;;;;27.00;10.50;;;;;;;4.18;57.80;101417.67;116434;1200;139036;-60
2021/10/09 05:58:20;;;;;;;22.10;7.90;;;;;;;4.26;57.54;101418.80;116697;1200;22481;-60
2021/10/09 06:59:26;;;;;;;23.40;8.50;;;;;;;5.40;52.16;101448.81;116410;1200;137329;-60
2021/10/09 07:01:44;;;;;;;16.20;7.80;;;;;;;5.62;51.18;101450.59;112303;1197;137239;-59
2021/10/09 07:04:13;;;;;;;29.30;9.70;;;;;;;5.69;50.49;101448.98;112281;1200;24176;-60
2021/10/09 07:06:42;;;;;;;18.70;8.10;;;;;;;5.76;50.97;101446.98;112349;1194;22416;-59
2021/10/09 07:09:25;;;;;;;18.50;7.30;;;;;;;5.85;51.14;101448.72;116399;1201;137024;-60
2021/10/09 07:12:02;;;;;;;;;;;;;;;5.96;50.45;101447.51;116452;1201;22993;-60
2021/10/09 07:14:35;;;;;;;19.70;7.40;;;;;;;6.06;49.75;101448.64;116375;1202;124084;-60
2021/10/09 07:17:03;;;;;;;28.40;9.50;;;;;;;6.19;49.55;101450.79;116559;1201;22339;-60
2021/10/09 07:19:32;;;;;;;25.40;7.70;;;;;;;6.29;49.54;101451.13;116408;1201;137550;-60
2021/10/09 07:22:01;;;;;;;22.40;7.40;;;;;;;6.40;48.68;101445.67;116491;1201;22239;-60
2021/10/09 07:24:49;;;;;;;13.10;6.80;;;;;;;6.52;48.44;101446.73;116620;1201;22393;-60
2021/10/09 07:27:17;;;;;;;18.60;6.90;;;;;;;6.63;48.02;101447.95;116516;1200;137202;-60
2021/10/09 07:29:46;;;;;;;16.80;7.20;;;;;;;6.73;48.39;101449.07;116670;1200;22262;-60
2021/10/09 07:32:14;;;;;;;26.80;10.90;;;;;;;6.83;48.00;101446.75;116494;1199;137410;-60
2021/10/09 07:34:42;;;;;;;32.50;12.90;;;;;;;6.93;47.58;101447.23;116631;1200;22966;-60
2021/10/09 07:37:10;;;;;;;89.50;36.60;;;;;;;7.00;46.50;101440.33;116570;1199;137654;-60
2021/10/09 07:39:38;;;;;;;28.00;11.60;;;;;;;7.09;46.15;101441.87;116626;1199;22341;-60
2021/10/09 07:42:07;;;;;;;24.80;11.70;;;;;;;7.18;46.01;101441.23;116591;1200;23588;-60
2021/10/09 07:44:35;;;;;;;31.60;13.10;;;;;;;7.26;46.04;101439.31;116544;1200;138466;-61
2021/10/09 07:47:03;;;;;;;23.00;9.80;;;;;;;7.36;45.76;101437.70;116723;1199;23116;-60
2021/10/09 07:49:32;;;;;;;29.00;11.90;;;;;;;7.45;45.28;101439.20;116630;1187;139262;-60
2021/10/09 07:52:01;;;;;;;20.00;6.80;;;;;;;7.55;44.76;101441.42;116668;1200;22322;-60
2021/10/09 07:54:29;;;;;;;20.60;8.60;;;;;;;7.64;43.82;101437.73;116766;1200;23445;-60
2021/10/09 07:56:57;;;;;;;17.10;5.80;;;;;;;7.71;43.17;101439.94;116605;1199;137402;-60
2021/10/09 07:59:26;;;;;;;21.50;7.00;;;;;;;7.76;42.83;101440.59;116708;1200;22271;-60
2021/10/09 08:01:54;;;;;;;26.40;9.90;;;;;;;7.79;43.42;101436.14;116565;1200;137673;-60
2021/10/09 08:04:22;;;;;;;15.10;6.50;;;;;;;7.89;43.98;101441.59;116629;1200;23377;-60
2021/10/09 08:06:50;;;;;;;12.10;5.80;;;;;;;8.00;43.16;101436.94;116656;1199;22289;-60
2021/10/09 08:09:18;;;;;;;19.70;6.40;;;;;;;8.09;43.25;101436.93;116507;1200;138177;-60
2021/10/09 08:11:46;;;;;;;10.60;4.70;;;;;;;8.15;43.07;101437.91;116713;1199;22343;-60
2021/10/09 08:14:15;;;;;;;8.70;4.70;;;;;;;8.24;43.06;101435.77;116541;1200;137050;-60
2021/10/09 08:16:44;;;;;;;8.80;4.30;;;;;;;8.31;42.31;101436.61;116743;1199;22200;-60
2021/10/09 08:19:12;;;;;;;8.30;4.50;;;;;;;8.38;42.61;101432.71;116573;1200;138453;-60
2021/10/09 08:21:42;;;;;;;13.50;5.60;;;;;;;8.45;42.21;101436.23;116678;1200;22250;-60
2021/10/09 08:26:51;;;;;;;11.90;5.50;;;;;;;8.63;41.71;101427.45;116604;1200;137365;-60
2021/10/09 08:40:25;;;;;;;6.00;3.30;;;;;;;8.99;39.57;101414.88;116639;1187;23296;-60
2021/10/09 08:42:53;;;;;;;10.30;3.90;;;;;;;9.06;39.52;101417.60;116817;1199;22358;-60
2021/10/09 08:45:21;;;;;;;7.80;4.00;;;;;;;9.14;39.64;101420.23;116645;1199;137199;-60
2021/10/09 08:47:50;;;;;;;7.10;2.90;;;;;;;9.25;38.98;101417.84;116609;1200;22322;-60
2021/10/09 08:50:26;;;;;;;9.80;3.20;;;;;;;9.34;38.52;101415.38;116634;1199;137129;-60
2021/10/09 08:53:07;;;;;;;7.30;3.40;;;;;;;9.42;38.30;101415.40;116755;1199;23081;-60
2021/10/09 08:55:37;;;;;;;6.50;3.40;;;;;;;9.49;37.74;101416.77;116587;1199;137688;-60
2021/10/09 08:58:12;;;;;;;9.70;3.70;;;;;;;9.53;37.78;101415.14;116644;1199;22270;-60
2021/10/09 09:00:55;;;;;;;8.70;2.90;;;;;;;9.54;37.68;101414.77;116753;1199;22322;-59
2021/10/09 09:03:33;;;;;;;5.80;3.20;;;;;;;9.56;37.45;101412.84;116534;1199;136867;-60
2021/10/09 09:06:14;;;;;;;7.30;2.90;;;;;;;9.56;38.27;101414.27;116710;1199;22343;-60
2021/10/09 09:35:18;;;;;;;5.60;2.50;;;;;;;10.24;34.03;101391.14;116391;1201;22343;-60
2021/10/09 09:40:42;;;;;;;6.60;2.30;;;;;;;10.36;33.23;101389.73;116349;1203;22280;-60
2021/10/09 09:43:11;;;;;;;15.70;3.70;;;;;;;10.41;32.75;101393.69;116340;1202;138096;-60
2021/10/09 09:45:39;;;;;;;10.90;2.40;;;;;;;10.46;32.53;101390.80;116341;1201;22413;-60
2021/10/09 09:48:07;;;;;;;8.00;2.30;;;;;;;10.52;32.66;101391.84;116342;1202;22330;-60
2021/10/09 09:50:38;;;;;;;10.70;2.70;;;;;;;10.56;33.22;101391.56;116067;1202;138585;-60
2021/10/09 09:53:06;;;;;;;7.30;3.00;;;;;;;10.60;32.83;101388.20;116180;1202;23355;-62
2021/10/09 09:55:34;;;;;;;13.20;5.80;;;;;;;10.61;32.15;101385.40;116290;1202;137466;-60
2021/10/09 09:58:14;;;;;;;7.80;3.00;;;;;;;10.63;31.40;101384.31;116372;1201;23015;-60
2021/10/09 10:00:42;;;;;;;14.70;5.30;;;;;;;10.60;32.40;101377.27;116176;1201;22300;-61
2021/10/09 10:03:10;;;;;;;5.80;3.50;;;;;;;10.62;31.91;101381.67;116458;1202;137361;-61
2021/10/09 10:05:39;;;;;;;12.90;6.70;;;;;;;10.63;32.11;101379.54;116286;1200;22392;-60
2021/10/09 10:08:10;;;;;;;11.50;4.00;;;;;;;10.66;31.44;101372.86;116507;1199;137915;-61
2021/10/09 10:10:39;;;;;;;5.60;2.40;;;;;;;10.65;31.95;101374.88;116634;1200;22291;-61
2021/10/09 10:13:07;;;;;;;5.20;2.00;;;;;;;10.67;31.54;101368.17;116537;1199;137675;-61
2021/10/09 10:15:36;;;;;;;7.30;2.60;;;;;;;10.65;32.00;101366.20;116663;1200;22264;-61
2021/10/09 10:18:08;;;;;;;18.10;4.50;;;;;;;10.68;30.91;101368.69;116647;1200;22321;-61
2021/10/09 10:20:47;;;;;;;6.10;2.40;;;;;;;10.71;31.05;101373.67;116548;1200;137655;-61
2021/10/09 10:23:36;;;;;;;5.90;1.80;;;;;;;10.72;30.75;101362.34;116696;1199;23150;-61
2021/10/09 10:26:20;;;;;;;16.70;3.10;;;;;;;10.70;31.12;101368.05;114904;1200;137757;-61
2021/10/09 10:29:14;;;;;;;4.70;2.00;;;;;;;10.68;31.23;101354.77;112343;1200;24108;-60
2021/10/09 10:32:06;;;;;;;4.70;1.80;;;;;;;10.70;31.66;101354.30;112246;1200;138229;-60
2021/10/09 10:34:34;;;;;;;8.20;3.20;;;;;;;10.74;31.66;101357.64;116598;1200;22394;-61
2021/10/09 10:37:02;;;;;;;10.40;4.30;;;;;;;10.81;31.53;101355.62;116713;1199;22234;-61
2021/10/09 10:39:39;;;;;;;5.60;2.70;;;;;;;10.85;31.17;101350.68;116594;1199;137645;-67
2021/10/09 10:42:25;;;;;;;3.70;2.30;;;;;;;10.85;31.35;101346.44;116638;1199;22419;-67
2021/10/09 10:44:59;;;;;;;5.90;1.90;;;;;;;10.84;31.19;101348.71;116504;1200;137141;-66
2021/10/09 10:48:05;;;;;;;5.80;2.40;;;;;;;10.84;30.93;101344.64;116738;1199;22433;-67
2021/10/09 10:53:18;;;;;;;11.50;2.60;;;;;;;10.86;31.36;101340.98;116652;1200;22391;-67
2021/10/09 10:56:08;;;;;;;5.40;2.30;;;;;;;10.86;30.73;101342.33;116489;1200;138015;-61
2021/10/09 10:58:36;;;;;;;5.00;2.40;;;;;;;10.83;30.89;101342.17;116665;1199;22108;-60
2021/10/09 11:01:20;;;;;;;5.10;2.40;;;;;;;10.84;31.20;101343.01;116758;1199;22335;-60
2021/10/09 11:03:53;;;;;;;6.60;2.70;;;;;;;10.88;31.71;101344.80;116662;1198;138567;-61
2021/10/09 11:06:25;;;;;;;5.50;2.10;;;;;;;10.91;31.16;101344.21;116750;1199;23059;-59
2021/10/09 11:08:54;;;;;;;5.50;2.00;;;;;;;10.93;30.41;101337.00;116476;1200;137167;-58
2021/10/09 11:11:33;;;;;;;8.30;2.90;;;;;;;10.94;30.98;101340.81;116620;1200;25527;-57
2021/10/09 11:14:01;;;;;;;7.70;3.00;;;;;;;10.97;30.76;101335.23;116574;1200;137885;-57
2021/10/09 11:16:29;;;;;;;5.60;2.70;;;;;;;11.00;30.99;101335.77;116720;1200;22305;-57
2021/10/09 11:18:58;;;;;;;7.30;3.20;;;;;;;11.04;31.37;101330.56;116636;1200;22867;-57
2021/10/09 11:21:26;;;;;;;5.80;2.70;;;;;;;11.06;30.79;101325.90;116558;1200;137227;-57
2021/10/09 11:23:55;;;;;;;7.60;3.00;;;;;;;11.06;30.21;101326.15;116632;1200;23206;-57
2021/10/09 11:26:25;;;;;;;4.70;2.40;;;;;;;11.04;30.29;101327.62;116526;1200;137169;-57
2021/10/09 11:29:04;;;;;;;8.70;2.40;;;;;;;11.03;30.19;101328.55;116720;1200;22827;-55
2021/10/09 11:31:32;;;;;;;9.30;2.90;;;;;;;11.00;30.39;101321.76;116673;1200;138514;-57
2021/10/09 11:34:01;;;;;;;3.70;2.30;;;;;;;11.01;30.70;101321.49;116683;1193;22529;-57
2021/10/09 11:36:29;;;;;;;3.80;2.20;;;;;;;11.06;30.47;101322.79;116759;1199;22318;-57
2021/10/09 11:39:06;;;;;;;6.70;2.30;;;;;;;11.12;30.02;101319.73;116440;1199;138680;-57
2021/10/09 11:41:34;;;;;;;7.50;3.70;;;;;;;11.15;30.51;101316.69;116675;1200;22314;-57
2021/10/09 11:44:21;;;;;;;8.20;2.90;;;;;;;11.17;30.54;101314.84;116586;1199;138939;-55
2021/10/09 11:55:19;;;;;;;6.00;2.90;;;;;;;11.28;30.59;101303.77;116719;1200;23081;-55
2021/10/09 11:57:48;;;;;;;10.60;2.60;;;;;;;11.31;30.50;101302.62;116612;1200;137053;-57
2021/10/09 12:00:29;;;;;;;7.20;3.20;;;;;;;11.33;30.19;101302.52;116738;1200;22357;-55
2021/10/09 12:04:23;;;;;;;10.40;2.90;;;;;;;11.36;29.56;101298.11;110648;1218;564180;-56
2021/10/09 12:06:57;;;;;;;11.40;2.90;;;;;;;11.34;29.64;101293.45;111816;1200;24274;-56
2021/10/09 12:09:35;;;;;;;8.20;2.20;;;;;;;11.32;29.88;101291.27;111676;1206;137778;-56
2021/10/09 12:12:20;;;;;;;9.50;3.10;;;;;;;11.33;30.46;101291.08;116001;1206;23124;-57
2021/10/09 12:14:50;;;;;;;4.50;2.50;;;;;;;11.32;30.34;101285.65;115885;1205;138112;-57
2021/10/09 12:17:20;;;;;;;9.20;3.30;;;;;;;11.32;30.28;101284.27;116045;1205;22320;-57
2021/10/09 12:19:59;;;;;;;5.90;3.30;;;;;;;11.32;29.90;101284.40;115926;1205;136635;-57
2021/10/09 12:22:27;;;;;;;6.40;2.80;;;;;;;11.32;29.86;101285.91;115977;1206;23974;-57
2021/10/09 12:24:55;;;;;;;15.90;3.20;;;;;;;11.32;29.48;101283.39;115997;1206;22275;-57
2021/10/09 12:27:28;;;;;;;5.10;2.70;;;;;;;11.31;29.58;101283.56;115845;1192;136783;-57
2021/10/09 12:30:00;;;;;;;10.60;3.10;;;;;;;11.30;29.51;101281.84;116007;1200;22297;-57
2021/10/09 12:32:38;;;;;;;6.40;2.80;;;;;;;11.29;29.14;101277.16;115910;1205;137879;-57
2021/10/09 12:35:13;;;;;;;9.80;2.80;;;;;;;11.26;29.19;101278.55;116016;1205;22281;-57
2021/10/09 12:38:03;;;;;;;6.90;2.10;;;;;;;11.23;29.30;101278.48;115909;1205;137540;-56
2021/10/09 12:40:42;;;;;;;7.90;2.60;;;;;;;11.22;29.65;101273.68;116040;1205;22320;-57
2021/10/09 12:43:12;;;;;;;7.80;3.00;;;;;;;11.26;29.53;101272.21;115987;1204;22317;-56
2021/10/09 12:45:40;;;;;;;6.70;3.60;;;;;;;11.28;28.11;101271.73;115924;1205;137112;-57
2021/10/09 12:48:08;;;;;;;6.40;2.90;;;;;;;11.25;28.73;101269.80;116080;1205;22650;-57
2021/10/09 12:50:38;;;;;;;7.10;3.10;;;;;;;11.24;28.81;101272.33;115965;1205;136844;-56
2021/10/09 12:53:07;;;;;;;8.40;2.90;;;;;;;11.25;29.05;101269.73;116061;1205;23573;-56
2021/10/09 12:55:35;;;;;;;8.80;3.70;;;;;;;11.25;29.05;101266.23;115896;1200;137151;-56
2021/10/09 12:58:05;;;;;;;6.10;3.00;;;;;;;11.24;29.16;101266.75;116021;1205;22262;-56
2021/10/09 13:00:34;;;;;;;11.00;5.10;;;;;;;11.22;28.93;101263.91;116090;1204;22207;-56
2021/10/09 13:03:03;;;;;;;9.00;3.60;;;;;;;11.20;29.42;101265.52;115867;1205;138092;-56
2021/10/09 13:05:31;;;;;;;7.50;4.10;;;;;;;11.19;29.83;101262.36;116108;1191;22944;-56
2021/10/09 13:08:00;;;;;;;12.60;4.40;;;;;;;11.20;29.84;101260.39;115899;1204;136939;-56
2021/10/09 13:10:33;;;;;;;10.70;3.90;;;;;;;11.21;29.59;101262.98;116073;1204;22315;-56
2021/10/09 13:13:01;;;;;;;9.30;3.90;;;;;;;11.20;29.37;101259.05;116148;1205;23139;-56
2021/10/09 13:15:29;;;;;;;8.70;3.70;;;;;;;11.20;29.31;101258.64;115900;1204;137005;-56
2021/10/09 13:17:58;;;;;;;8.50;3.00;;;;;;;11.18;29.18;101259.39;116044;1206;24202;-56
2021/10/09 13:20:32;;;;;;;8.20;3.50;;;;;;;11.16;29.04;101253.10;115986;1205;136835;-56
2021/10/09 13:23:00;;;;;;;12.60;3.20;;;;;;;11.16;28.96;101249.99;116032;1205;22393;-56
2021/10/09 13:25:34;;;;;;;12.50;4.40;;;;;;;11.16;29.11;101251.34;115988;1205;138388;-56
2021/10/09 13:28:04;;;;;;;8.80;4.20;;;;;;;11.16;29.45;101253.43;116001;1205;22865;-56
2021/10/09 13:30:33;;;;;;;9.40;4.60;;;;;;;11.16;29.34;101246.98;116045;1205;23129;-56
2021/10/09 13:33:02;;;;;;;7.20;3.40;;;;;;;11.15;29.82;101249.70;115836;1204;137000;-56
2021/10/09 13:35:30;;;;;;;11.10;4.90;;;;;;;11.13;29.69;101244.52;116020;1205;22329;-60
2021/10/09 13:38:01;;;;;;;9.20;4.00;;;;;;;11.12;29.95;101249.84;115921;1206;136953;-60
2021/10/09 13:40:30;;;;;;;17.30;4.50;;;;;;;11.12;30.08;101250.27;116009;1205;22419;-60
2021/10/09 13:42:58;;;;;;;13.80;4.30;;;;;;;11.11;30.36;101246.92;115969;1205;22332;-61
2021/10/09 13:45:27;;;;;;;10.30;4.70;;;;;;;11.09;30.46;101244.38;115912;1204;137492;-61